sensor_id;sensor_type;location;lat;lon;timestamp;P1;durP1;ratioP1;P2;durP2;ratioP2
18820;SDS011;9539;59.332;18.034;2024-03-29T00:01:17;71.10;;;28.20;;
18820;SDS011;9539;59.332;18.034;2024-03-29T00:03:38;66.10;;;30.70;;
18820;SDS011;9539;59.332;18.034;2024-03-29T00:06:00;65.20;;;29.20;;
18820;SDS011;9539;59.332;18.034;2024-03-29T00:08:21;68.03;;;28.33;;
18820;SDS011;9539;59.332;18.034;2024-03-29T00:10:41;69.50;;;29.65;;
18820;SDS011;9539;59.332;18.034;2024-03-29T00:13:02;75.00;;;30.80;;
18820;SDS011;9539;59.332;18.034;2024-03-29T00:15:23;80.22;;;30.80;;
18820;SDS011;9539;59.332;18.034;2024-03-29T00:17:43;83.38;;;30.95;;
18820;SDS011;9539;59.332;18.034;2024-03-29T00:20:04;78.82;;;30.98;;
18820;SDS011;9539;59.332;18.034;2024-03-29T00:22:27;82.25;;;32.85;;
18820;SDS011;9539;59.332;18.034;2024-03-29T00:24:48;96.00;;;33.88;;
18820;SDS011;9539;59.332;18.034;2024-03-29T00:27:08;87.45;;;34.45;;
18820;SDS011;9539;59.332;18.034;2024-03-29T00:29:29;89.38;;;33.47;;
18820;SDS011;9539;59.332;18.034;2024-03-29T00:31:50;97.15;;;34.45;;
18820;SDS011;9539;59.332;18.034;2024-03-29T00:34:10;104.47;;;31.17;;
18820;SDS011;9539;59.332;18.034;2024-03-29T00:36:31;108.30;;;32.28;;
18820;SDS011;9539;59.332;18.034;2024-03-29T00:38:53;119.60;;;34.97;;
18820;SDS011;9539;59.332;18.034;2024-03-29T00:41:13;134.70;;;37.08;;
18820;SDS011;9539;59.332;18.034;2024-03-29T00:43:34;141.18;;;39.45;;
18820;SDS011;9539;59.332;18.034;2024-03-29T00:45:55;204.98;;;41.67;;
18820;SDS011;9539;59.332;18.034;2024-03-29T00:48:15;174.82;;;39.13;;
18820;SDS011;9539;59.332;18.034;2024-03-29T00:50:36;253.95;;;44.83;;
18820;SDS011;9539;59.332;18.034;2024-03-29T00:52:57;157.95;;;41.13;;
18820;SDS011;9539;59.332;18.034;2024-03-29T00:55:19;259.08;;;44.03;;
18820;SDS011;9539;59.332;18.034;2024-03-29T00:57:40;195.63;;;41.30;;
18820;SDS011;9539;59.332;18.034;2024-03-29T01:00:00;330.00;;;46.50;;
18820;SDS011;9539;59.332;18.034;2024-03-29T01:02:21;185.48;;;41.78;;
18820;SDS011;9539;59.332;18.034;2024-03-29T01:04:42;728.22;;;59.85;;
18820;SDS011;9539;59.332;18.034;2024-03-29T01:07:02;675.83;;;60.20;;
18820;SDS011;9539;59.332;18.034;2024-03-29T01:09:23;161.00;;;43.10;;
18820;SDS011;9539;59.332;18.034;2024-03-29T01:11:45;162.30;;;42.20;;
18820;SDS011;9539;59.332;18.034;2024-03-29T01:14:06;166.70;;;40.58;;
18820;SDS011;9539;59.332;18.034;2024-03-29T01:16:26;223.40;;;45.22;;
18820;SDS011;9539;59.332;18.034;2024-03-29T01:18:47;157.48;;;42.95;;
18820;SDS011;9539;59.332;18.034;2024-03-29T01:21:08;162.40;;;40.25;;
18820;SDS011;9539;59.332;18.034;2024-03-29T01:23:28;148.70;;;41.00;;
18820;SDS011;9539;59.332;18.034;2024-03-29T01:25:49;141.38;;;40.15;;
18820;SDS011;9539;59.332;18.034;2024-03-29T01:28:11;136.77;;;39.90;;
18820;SDS011;9539;59.332;18.034;2024-03-29T01:30:32;146.30;;;39.17;;
18820;SDS011;9539;59.332;18.034;2024-03-29T01:32:52;149.18;;;40.83;;
18820;SDS011;9539;59.332;18.034;2024-03-29T01:35:13;165.02;;;41.50;;
18820;SDS011;9539;59.332;18.034;2024-03-29T01:37:33;147.18;;;41.03;;
18820;SDS011;9539;59.332;18.034;2024-03-29T01:39:54;189.48;;;42.88;;
18820;SDS011;9539;59.332;18.034;2024-03-29T01:42:15;182.63;;;43.05;;
18820;SDS011;9539;59.332;18.034;2024-03-29T01:44:37;166.90;;;43.08;;
18820;SDS011;9539;59.332;18.034;2024-03-29T01:46:58;160.98;;;42.90;;
18820;SDS011;9539;59.332;18.034;2024-03-29T01:49:20;147.32;;;40.22;;
18820;SDS011;9539;59.332;18.034;2024-03-29T01:51:42;142.63;;;36.65;;
18820;SDS011;9539;59.332;18.034;2024-03-29T01:54:04;134.98;;;39.00;;
18820;SDS011;9539;59.332;18.034;2024-03-29T01:56:26;152.77;;;39.40;;
18820;SDS011;9539;59.332;18.034;2024-03-29T01:58:49;136.05;;;39.40;;
18820;SDS011;9539;59.332;18.034;2024-03-29T02:03:42;144.30;;;40.83;;
18820;SDS011;9539;59.332;18.034;2024-03-29T02:06:04;137.98;;;41.40;;
18820;SDS011;9539;59.332;18.034;2024-03-29T02:08:27;160.52;;;39.40;;
18820;SDS011;9539;59.332;18.034;2024-03-29T02:10:49;145.70;;;39.20;;
18820;SDS011;9539;59.332;18.034;2024-03-29T02:13:11;136.15;;;38.90;;
18820;SDS011;9539;59.332;18.034;2024-03-29T02:15:33;133.85;;;37.65;;
18820;SDS011;9539;59.332;18.034;2024-03-29T02:17:54;166.13;;;41.95;;
18820;SDS011;9539;59.332;18.034;2024-03-29T02:20:17;160.05;;;41.25;;
18820;SDS011;9539;59.332;18.034;2024-03-29T02:22:40;175.02;;;40.70;;
18820;SDS011;9539;59.332;18.034;2024-03-29T02:25:04;153.32;;;40.45;;
18820;SDS011;9539;59.332;18.034;2024-03-29T02:27:25;138.23;;;37.35;;
18820;SDS011;9539;59.332;18.034;2024-03-29T02:29:47;140.63;;;38.53;;
18820;SDS011;9539;59.332;18.034;2024-03-29T02:32:09;151.07;;;39.72;;
18820;SDS011;9539;59.332;18.034;2024-03-29T02:34:29;145.18;;;38.78;;
18820;SDS011;9539;59.332;18.034;2024-03-29T02:36:51;119.10;;;34.03;;
18820;SDS011;9539;59.332;18.034;2024-03-29T02:39:13;111.40;;;37.85;;
18820;SDS011;9539;59.332;18.034;2024-03-29T02:41:36;119.80;;;35.38;;
18820;SDS011;9539;59.332;18.034;2024-03-29T02:43:57;122.35;;;35.45;;
18820;SDS011;9539;59.332;18.034;2024-03-29T02:46:18;130.25;;;35.88;;
18820;SDS011;9539;59.332;18.034;2024-03-29T02:48:40;115.47;;;35.38;;
18820;SDS011;9539;59.332;18.034;2024-03-29T02:51:01;117.07;;;35.17;;
18820;SDS011;9539;59.332;18.034;2024-03-29T02:53:23;119.47;;;33.47;;
18820;SDS011;9539;59.332;18.034;2024-03-29T02:55:44;96.03;;;32.92;;
18820;SDS011;9539;59.332;18.034;2024-03-29T02:58:06;103.10;;;33.47;;
18820;SDS011;9539;59.332;18.034;2024-03-29T03:00:28;102.07;;;32.17;;
18820;SDS011;9539;59.332;18.034;2024-03-29T03:02:49;93.95;;;30.90;;
18820;SDS011;9539;59.332;18.034;2024-03-29T03:05:10;94.15;;;32.38;;
18820;SDS011;9539;59.332;18.034;2024-03-29T03:07:31;91.20;;;30.65;;
18820;SDS011;9539;59.332;18.034;2024-03-29T03:10:10;80.75;;;29.80;;
18820;SDS011;9539;59.332;18.034;2024-03-29T03:12:49;80.30;;;28.15;;
18820;SDS011;9539;59.332;18.034;2024-03-29T03:15:14;76.35;;;27.27;;
18820;SDS011;9539;59.332;18.034;2024-03-29T03:17:36;72.38;;;26.45;;
18820;SDS011;9539;59.332;18.034;2024-03-29T03:19:57;65.47;;;26.73;;
18820;SDS011;9539;59.332;18.034;2024-03-29T03:22:18;64.55;;;24.73;;
18820;SDS011;9539;59.332;18.034;2024-03-29T03:24:40;64.65;;;25.35;;
18820;SDS011;9539;59.332;18.034;2024-03-29T03:27:00;55.97;;;24.45;;
18820;SDS011;9539;59.332;18.034;2024-03-29T03:29:22;57.42;;;24.73;;
18820;SDS011;9539;59.332;18.034;2024-03-29T03:31:44;59.03;;;24.23;;
18820;SDS011;9539;59.332;18.034;2024-03-29T03:34:06;63.78;;;25.30;;
18820;SDS011;9539;59.332;18.034;2024-03-29T03:36:26;65.18;;;26.52;;
18820;SDS011;9539;59.332;18.034;2024-03-29T03:38:48;63.95;;;25.45;;
18820;SDS011;9539;59.332;18.034;2024-03-29T03:41:08;59.65;;;25.23;;
18820;SDS011;9539;59.332;18.034;2024-03-29T03:43:30;58.20;;;25.23;;
18820;SDS011;9539;59.332;18.034;2024-03-29T03:45:51;60.42;;;25.33;;
18820;SDS011;9539;59.332;18.034;2024-03-29T03:48:14;61.08;;;25.67;;
18820;SDS011;9539;59.332;18.034;2024-03-29T03:50:35;62.08;;;24.48;;
18820;SDS011;9539;59.332;18.034;2024-03-29T03:52:57;63.83;;;25.92;;
18820;SDS011;9539;59.332;18.034;2024-03-29T03:55:17;56.80;;;25.33;;
18820;SDS011;9539;59.332;18.034;2024-03-29T03:57:39;60.25;;;26.33;;
18820;SDS011;9539;59.332;18.034;2024-03-29T04:00:00;56.58;;;25.80;;
18820;SDS011;9539;59.332;18.034;2024-03-29T04:02:22;59.53;;;26.13;;
18820;SDS011;9539;59.332;18.034;2024-03-29T04:04:44;59.33;;;25.45;;
18820;SDS011;9539;59.332;18.034;2024-03-29T04:07:08;57.72;;;25.42;;
18820;SDS011;9539;59.332;18.034;2024-03-29T04:09:28;56.60;;;25.23;;
18820;SDS011;9539;59.332;18.034;2024-03-29T04:11:50;55.75;;;25.45;;
18820;SDS011;9539;59.332;18.034;2024-03-29T04:14:11;64.88;;;27.13;;
18820;SDS011;9539;59.332;18.034;2024-03-29T04:16:32;57.92;;;25.02;;
18820;SDS011;9539;59.332;18.034;2024-03-29T04:18:53;55.70;;;25.35;;
18820;SDS011;9539;59.332;18.034;2024-03-29T04:21:16;60.55;;;25.88;;
18820;SDS011;9539;59.332;18.034;2024-03-29T04:23:37;61.28;;;26.45;;
18820;SDS011;9539;59.332;18.034;2024-03-29T04:25:58;59.50;;;26.08;;
18820;SDS011;9539;59.332;18.034;2024-03-29T04:28:19;53.40;;;25.77;;
18820;SDS011;9539;59.332;18.034;2024-03-29T04:30:41;54.40;;;23.95;;
18820;SDS011;9539;59.332;18.034;2024-03-29T04:33:10;54.22;;;24.95;;
18820;SDS011;9539;59.332;18.034;2024-03-29T04:35:32;53.08;;;25.80;;
18820;SDS011;9539;59.332;18.034;2024-03-29T04:37:54;53.08;;;25.52;;
18820;SDS011;9539;59.332;18.034;2024-03-29T04:40:15;56.50;;;25.88;;
18820;SDS011;9539;59.332;18.034;2024-03-29T04:42:37;49.83;;;24.73;;
18820;SDS011;9539;59.332;18.034;2024-03-29T04:44:59;57.33;;;26.27;;
18820;SDS011;9539;59.332;18.034;2024-03-29T04:47:21;52.65;;;24.45;;
18820;SDS011;9539;59.332;18.034;2024-03-29T04:49:42;55.30;;;25.48;;
18820;SDS011;9539;59.332;18.034;2024-03-29T04:52:04;51.60;;;24.63;;
18820;SDS011;9539;59.332;18.034;2024-03-29T04:54:27;53.95;;;25.60;;
18820;SDS011;9539;59.332;18.034;2024-03-29T04:56:48;57.95;;;26.73;;
18820;SDS011;9539;59.332;18.034;2024-03-29T04:59:10;55.05;;;25.35;;
18820;SDS011;9539;59.332;18.034;2024-03-29T05:01:32;52.70;;;24.92;;
18820;SDS011;9539;59.332;18.034;2024-03-29T05:03:55;52.22;;;25.45;;
18820;SDS011;9539;59.332;18.034;2024-03-29T05:06:17;55.80;;;24.88;;
18820;SDS011;9539;59.332;18.034;2024-03-29T05:08:38;53.83;;;26.55;;
18820;SDS011;9539;59.332;18.034;2024-03-29T05:11:01;53.25;;;24.25;;
18820;SDS011;9539;59.332;18.034;2024-03-29T05:13:23;55.63;;;24.92;;
18820;SDS011;9539;59.332;18.034;2024-03-29T05:15:44;49.38;;;24.90;;
18820;SDS011;9539;59.332;18.034;2024-03-29T05:18:07;50.70;;;24.48;;
18820;SDS011;9539;59.332;18.034;2024-03-29T05:20:29;49.28;;;24.05;;
18820;SDS011;9539;59.332;18.034;2024-03-29T05:22:50;51.35;;;25.25;;
18820;SDS011;9539;59.332;18.034;2024-03-29T05:25:12;48.13;;;23.73;;
18820;SDS011;9539;59.332;18.034;2024-03-29T05:27:35;48.70;;;25.00;;
18820;SDS011;9539;59.332;18.034;2024-03-29T05:29:57;47.08;;;24.98;;
18820;SDS011;9539;59.332;18.034;2024-03-29T05:32:19;51.33;;;24.23;;
18820;SDS011;9539;59.332;18.034;2024-03-29T05:34:41;54.78;;;24.85;;
18820;SDS011;9539;59.332;18.034;2024-03-29T05:37:03;47.97;;;23.80;;
18820;SDS011;9539;59.332;18.034;2024-03-29T05:39:25;49.92;;;25.70;;
18820;SDS011;9539;59.332;18.034;2024-03-29T05:41:47;50.70;;;25.20;;
18820;SDS011;9539;59.332;18.034;2024-03-29T05:44:10;48.88;;;24.20;;
18820;SDS011;9539;59.332;18.034;2024-03-29T05:46:31;47.55;;;24.20;;
18820;SDS011;9539;59.332;18.034;2024-03-29T05:48:53;47.20;;;24.88;;
18820;SDS011;9539;59.332;18.034;2024-03-29T05:51:15;48.50;;;24.63;;
18820;SDS011;9539;59.332;18.034;2024-03-29T05:53:36;48.65;;;23.33;;
18820;SDS011;9539;59.332;18.034;2024-03-29T05:55:58;49.22;;;23.98;;
18820;SDS011;9539;59.332;18.034;2024-03-29T05:58:20;41.83;;;23.23;;
18820;SDS011;9539;59.332;18.034;2024-03-29T06:00:43;47.97;;;24.58;;
18820;SDS011;9539;59.332;18.034;2024-03-29T06:03:05;46.42;;;24.20;;
18820;SDS011;9539;59.332;18.034;2024-03-29T06:05:26;48.20;;;24.40;;
18820;SDS011;9539;59.332;18.034;2024-03-29T06:07:48;49.85;;;24.60;;
18820;SDS011;9539;59.332;18.034;2024-03-29T06:10:10;50.67;;;24.80;;
18820;SDS011;9539;59.332;18.034;2024-03-29T06:12:31;46.10;;;24.45;;
18820;SDS011;9539;59.332;18.034;2024-03-29T06:14:53;48.85;;;23.65;;
18820;SDS011;9539;59.332;18.034;2024-03-29T06:17:34;47.00;;;22.80;;
18820;SDS011;9539;59.332;18.034;2024-03-29T06:19:57;44.40;;;23.55;;
18820;SDS011;9539;59.332;18.034;2024-03-29T06:22:20;40.17;;;21.83;;
18820;SDS011;9539;59.332;18.034;2024-03-29T06:24:42;48.15;;;23.98;;
18820;SDS011;9539;59.332;18.034;2024-03-29T06:27:04;47.35;;;23.50;;
18820;SDS011;9539;59.332;18.034;2024-03-29T06:29:26;44.17;;;22.50;;
18820;SDS011;9539;59.332;18.034;2024-03-29T06:31:48;45.13;;;23.30;;
18820;SDS011;9539;59.332;18.034;2024-03-29T06:34:11;44.75;;;22.73;;
18820;SDS011;9539;59.332;18.034;2024-03-29T06:36:32;37.67;;;21.60;;
18820;SDS011;9539;59.332;18.034;2024-03-29T06:38:55;44.20;;;21.88;;
18820;SDS011;9539;59.332;18.034;2024-03-29T06:41:17;41.05;;;21.00;;
18820;SDS011;9539;59.332;18.034;2024-03-29T06:43:40;40.85;;;21.88;;
18820;SDS011;9539;59.332;18.034;2024-03-29T06:46:03;37.75;;;20.70;;
18820;SDS011;9539;59.332;18.034;2024-03-29T06:48:25;36.53;;;21.10;;
18820;SDS011;9539;59.332;18.034;2024-03-29T06:50:48;36.40;;;20.85;;
18820;SDS011;9539;59.332;18.034;2024-03-29T06:53:11;34.22;;;18.70;;
18820;SDS011;9539;59.332;18.034;2024-03-29T06:55:32;38.08;;;19.92;;
18820;SDS011;9539;59.332;18.034;2024-03-29T06:57:54;35.95;;;19.58;;
18820;SDS011;9539;59.332;18.034;2024-03-29T07:00:16;37.20;;;19.23;;
18820;SDS011;9539;59.332;18.034;2024-03-29T07:02:37;40.55;;;20.42;;
18820;SDS011;9539;59.332;18.034;2024-03-29T07:04:59;31.13;;;18.42;;
18820;SDS011;9539;59.332;18.034;2024-03-29T07:07:27;33.80;;;18.77;;
18820;SDS011;9539;59.332;18.034;2024-03-29T07:09:48;30.00;;;17.85;;
18820;SDS011;9539;59.332;18.034;2024-03-29T07:12:10;30.75;;;18.15;;
18820;SDS011;9539;59.332;18.034;2024-03-29T07:14:32;34.83;;;17.25;;
18820;SDS011;9539;59.332;18.034;2024-03-29T07:16:53;28.48;;;17.40;;
18820;SDS011;9539;59.332;18.034;2024-03-29T07:19:15;29.10;;;16.85;;
18820;SDS011;9539;59.332;18.034;2024-03-29T07:21:39;27.02;;;16.02;;
18820;SDS011;9539;59.332;18.034;2024-03-29T07:24:02;24.55;;;15.60;;
18820;SDS011;9539;59.332;18.034;2024-03-29T07:26:24;28.00;;;15.50;;
18820;SDS011;9539;59.332;18.034;2024-03-29T07:28:45;21.05;;;14.63;;
18820;SDS011;9539;59.332;18.034;2024-03-29T07:31:07;17.30;;;13.05;;
18820;SDS011;9539;59.332;18.034;2024-03-29T07:33:29;17.55;;;12.68;;
18820;SDS011;9539;59.332;18.034;2024-03-29T07:35:51;19.92;;;12.77;;
18820;SDS011;9539;59.332;18.034;2024-03-29T07:38:13;17.63;;;13.13;;
18820;SDS011;9539;59.332;18.034;2024-03-29T07:40:36;22.98;;;13.02;;
18820;SDS011;9539;59.332;18.034;2024-03-29T07:42:58;22.15;;;12.00;;
18820;SDS011;9539;59.332;18.034;2024-03-29T07:45:20;15.68;;;11.30;;
18820;SDS011;9539;59.332;18.034;2024-03-29T07:47:41;16.70;;;11.25;;
18820;SDS011;9539;59.332;18.034;2024-03-29T07:50:03;14.68;;;10.93;;
18820;SDS011;9539;59.332;18.034;2024-03-29T07:52:26;13.93;;;10.07;;
18820;SDS011;9539;59.332;18.034;2024-03-29T07:54:47;13.63;;;9.65;;
18820;SDS011;9539;59.332;18.034;2024-03-29T07:57:10;11.95;;;9.02;;
18820;SDS011;9539;59.332;18.034;2024-03-29T07:59:34;13.70;;;9.20;;
18820;SDS011;9539;59.332;18.034;2024-03-29T08:01:56;11.68;;;9.02;;
18820;SDS011;9539;59.332;18.034;2024-03-29T08:04:18;13.30;;;8.90;;
18820;SDS011;9539;59.332;18.034;2024-03-29T08:06:40;14.88;;;9.82;;
18820;SDS011;9539;59.332;18.034;2024-03-29T08:09:01;13.23;;;8.90;;
18820;SDS011;9539;59.332;18.034;2024-03-29T08:11:25;14.73;;;9.00;;
18820;SDS011;9539;59.332;18.034;2024-03-29T08:13:48;13.00;;;9.32;;
18820;SDS011;9539;59.332;18.034;2024-03-29T08:16:10;13.05;;;8.60;;
18820;SDS011;9539;59.332;18.034;2024-03-29T08:18:32;12.27;;;8.38;;
18820;SDS011;9539;59.332;18.034;2024-03-29T08:20:55;12.27;;;8.70;;
18820;SDS011;9539;59.332;18.034;2024-03-29T08:23:15;13.07;;;8.82;;
18820;SDS011;9539;59.332;18.034;2024-03-29T08:25:37;12.25;;;8.70;;
18820;SDS011;9539;59.332;18.034;2024-03-29T08:27:59;12.93;;;8.38;;
18820;SDS011;9539;59.332;18.034;2024-03-29T08:30:23;15.73;;;7.90;;
18820;SDS011;9539;59.332;18.034;2024-03-29T08:32:44;10.80;;;6.97;;
18820;SDS011;9539;59.332;18.034;2024-03-29T08:35:06;13.45;;;7.65;;
18820;SDS011;9539;59.332;18.034;2024-03-29T08:37:28;12.10;;;7.65;;
18820;SDS011;9539;59.332;18.034;2024-03-29T08:39:50;13.95;;;7.88;;
18820;SDS011;9539;59.332;18.034;2024-03-29T08:42:12;12.95;;;7.63;;
18820;SDS011;9539;59.332;18.034;2024-03-29T08:44:42;10.82;;;7.70;;
18820;SDS011;9539;59.332;18.034;2024-03-29T08:47:06;9.05;;;7.13;;
18820;SDS011;9539;59.332;18.034;2024-03-29T08:49:27;10.35;;;6.93;;
18820;SDS011;9539;59.332;18.034;2024-03-29T08:51:49;13.02;;;6.32;;
18820;SDS011;9539;59.332;18.034;2024-03-29T08:54:11;10.40;;;6.85;;
18820;SDS011;9539;59.332;18.034;2024-03-29T08:56:32;9.82;;;6.53;;
18820;SDS011;9539;59.332;18.034;2024-03-29T08:58:57;8.63;;;6.03;;
18820;SDS011;9539;59.332;18.034;2024-03-29T09:01:20;11.38;;;6.53;;
18820;SDS011;9539;59.332;18.034;2024-03-29T09:03:43;9.48;;;6.53;;
18820;SDS011;9539;59.332;18.034;2024-03-29T09:06:05;13.60;;;6.93;;
18820;SDS011;9539;59.332;18.034;2024-03-29T09:08:27;12.48;;;7.00;;
18820;SDS011;9539;59.332;18.034;2024-03-29T09:10:48;10.30;;;6.68;;
18820;SDS011;9539;59.332;18.034;2024-03-29T09:13:10;11.07;;;6.28;;
18820;SDS011;9539;59.332;18.034;2024-03-29T09:15:32;7.72;;;6.05;;
18820;SDS011;9539;59.332;18.034;2024-03-29T09:17:53;8.02;;;6.60;;
18820;SDS011;9539;59.332;18.034;2024-03-29T09:20:16;9.57;;;6.40;;
18820;SDS011;9539;59.332;18.034;2024-03-29T09:22:38;8.85;;;6.22;;
18820;SDS011;9539;59.332;18.034;2024-03-29T09:24:59;7.28;;;5.97;;
18820;SDS011;9539;59.332;18.034;2024-03-29T09:27:21;9.23;;;5.85;;
18820;SDS011;9539;59.332;18.034;2024-03-29T09:29:43;8.35;;;6.00;;
18820;SDS011;9539;59.332;18.034;2024-03-29T09:32:04;7.57;;;5.63;;
18820;SDS011;9539;59.332;18.034;2024-03-29T09:34:26;7.90;;;5.72;;
18820;SDS011;9539;59.332;18.034;2024-03-29T09:36:49;8.65;;;5.63;;
18820;SDS011;9539;59.332;18.034;2024-03-29T09:39:11;8.65;;;5.10;;
18820;SDS011;9539;59.332;18.034;2024-03-29T09:41:32;7.78;;;5.07;;
18820;SDS011;9539;59.332;18.034;2024-03-29T09:43:57;7.10;;;5.10;;
18820;SDS011;9539;59.332;18.034;2024-03-29T09:46:21;8.13;;;5.22;;
18820;SDS011;9539;59.332;18.034;2024-03-29T09:48:43;7.65;;;5.20;;
18820;SDS011;9539;59.332;18.034;2024-03-29T09:51:06;7.57;;;5.20;;
18820;SDS011;9539;59.332;18.034;2024-03-29T09:53:30;7.10;;;5.15;;
18820;SDS011;9539;59.332;18.034;2024-03-29T09:55:52;6.72;;;4.70;;
18820;SDS011;9539;59.332;18.034;2024-03-29T09:58:14;7.45;;;4.97;;
18820;SDS011;9539;59.332;18.034;2024-03-29T10:00:35;8.07;;;5.40;;
18820;SDS011;9539;59.332;18.034;2024-03-29T10:02:57;7.53;;;5.20;;
18820;SDS011;9539;59.332;18.034;2024-03-29T10:05:19;8.35;;;5.05;;
18820;SDS011;9539;59.332;18.034;2024-03-29T10:07:41;9.07;;;5.35;;
18820;SDS011;9539;59.332;18.034;2024-03-29T10:10:05;8.32;;;5.32;;
18820;SDS011;9539;59.332;18.034;2024-03-29T10:12:27;7.90;;;5.47;;
18820;SDS011;9539;59.332;18.034;2024-03-29T10:14:49;8.38;;;5.45;;
18820;SDS011;9539;59.332;18.034;2024-03-29T10:17:12;7.60;;;5.47;;
18820;SDS011;9539;59.332;18.034;2024-03-29T10:19:34;7.68;;;5.22;;
18820;SDS011;9539;59.332;18.034;2024-03-29T10:22:04;10.18;;;5.95;;
18820;SDS011;9539;59.332;18.034;2024-03-29T10:24:26;8.65;;;5.88;;
18820;SDS011;9539;59.332;18.034;2024-03-29T10:26:49;9.32;;;5.40;;
18820;SDS011;9539;59.332;18.034;2024-03-29T10:29:11;10.20;;;5.43;;
18820;SDS011;9539;59.332;18.034;2024-03-29T10:31:33;9.07;;;5.55;;
18820;SDS011;9539;59.332;18.034;2024-03-29T10:33:55;8.10;;;5.93;;
18820;SDS011;9539;59.332;18.034;2024-03-29T10:36:25;9.60;;;5.70;;
18820;SDS011;9539;59.332;18.034;2024-03-29T10:38:46;9.45;;;5.07;;
18820;SDS011;9539;59.332;18.034;2024-03-29T10:41:08;10.85;;;5.32;;
18820;SDS011;9539;59.332;18.034;2024-03-29T10:43:32;8.80;;;4.82;;
18820;SDS011;9539;59.332;18.034;2024-03-29T10:45:53;10.95;;;6.25;;
18820;SDS011;9539;59.332;18.034;2024-03-29T10:48:20;11.93;;;5.78;;
18820;SDS011;9539;59.332;18.034;2024-03-29T10:50:42;8.55;;;5.65;;
18820;SDS011;9539;59.332;18.034;2024-03-29T10:53:04;6.65;;;5.20;;
18820;SDS011;9539;59.332;18.034;2024-03-29T10:55:26;9.88;;;5.65;;
18820;SDS011;9539;59.332;18.034;2024-03-29T10:57:48;8.68;;;6.00;;
18820;SDS011;9539;59.332;18.034;2024-03-29T11:00:17;12.88;;;6.20;;
18820;SDS011;9539;59.332;18.034;2024-03-29T11:02:43;12.43;;;6.85;;
18820;SDS011;9539;59.332;18.034;2024-03-29T11:05:09;8.35;;;5.97;;
18820;SDS011;9539;59.332;18.034;2024-03-29T11:07:30;10.20;;;5.70;;
18820;SDS011;9539;59.332;18.034;2024-03-29T11:09:53;8.88;;;5.65;;
18820;SDS011;9539;59.332;18.034;2024-03-29T11:12:18;9.02;;;5.72;;
18820;SDS011;9539;59.332;18.034;2024-03-29T11:14:42;10.52;;;6.03;;
18820;SDS011;9539;59.332;18.034;2024-03-29T11:17:16;13.70;;;6.05;;
18820;SDS011;9539;59.332;18.034;2024-03-29T11:19:53;7.18;;;5.15;;
18820;SDS011;9539;59.332;18.034;2024-03-29T11:25:24;12.13;;;5.40;;
18820;SDS011;9539;59.332;18.034;2024-03-29T11:28:08;11.43;;;5.15;;
18820;SDS011;9539;59.332;18.034;2024-03-29T11:30:53;6.28;;;4.60;;
18820;SDS011;9539;59.332;18.034;2024-03-29T11:36:23;7.93;;;4.93;;
18820;SDS011;9539;59.332;18.034;2024-03-29T11:38:57;8.88;;;4.72;;
18820;SDS011;9539;59.332;18.034;2024-03-29T11:44:08;7.80;;;4.70;;
18820;SDS011;9539;59.332;18.034;2024-03-29T11:46:30;6.90;;;3.90;;
18820;SDS011;9539;59.332;18.034;2024-03-29T11:49:00;13.05;;;4.43;;
18820;SDS011;9539;59.332;18.034;2024-03-29T11:51:37;12.55;;;4.40;;
18820;SDS011;9539;59.332;18.034;2024-03-29T11:54:10;7.57;;;3.75;;
18820;SDS011;9539;59.332;18.034;2024-03-29T11:56:46;7.05;;;3.83;;
18820;SDS011;9539;59.332;18.034;2024-03-29T11:59:12;11.25;;;3.50;;
18820;SDS011;9539;59.332;18.034;2024-03-29T12:01:38;10.30;;;3.50;;
18820;SDS011;9539;59.332;18.034;2024-03-29T12:04:20;7.72;;;3.20;;
18820;SDS011;9539;59.332;18.034;2024-03-29T12:07:01;7.45;;;3.47;;
18820;SDS011;9539;59.332;18.034;2024-03-29T12:09:39;9.57;;;3.58;;
18820;SDS011;9539;59.332;18.034;2024-03-29T12:12:04;10.90;;;3.25;;
18820;SDS011;9539;59.332;18.034;2024-03-29T12:14:36;6.68;;;3.15;;
18820;SDS011;9539;59.332;18.034;2024-03-29T12:17:23;6.78;;;2.63;;
18820;SDS011;9539;59.332;18.034;2024-03-29T12:19:58;3.83;;;2.60;;
18820;SDS011;9539;59.332;18.034;2024-03-29T12:22:28;10.60;;;2.55;;
18820;SDS011;9539;59.332;18.034;2024-03-29T12:24:49;3.95;;;2.70;;
18820;SDS011;9539;59.332;18.034;2024-03-29T12:27:16;10.23;;;2.75;;
18820;SDS011;9539;59.332;18.034;2024-03-29T12:29:52;5.18;;;2.20;;
18820;SDS011;9539;59.332;18.034;2024-03-29T12:32:39;8.80;;;2.58;;
18820;SDS011;9539;59.332;18.034;2024-03-29T12:41:07;6.25;;;2.35;;
18820;SDS011;9539;59.332;18.034;2024-03-29T12:43:39;8.02;;;2.40;;
18820;SDS011;9539;59.332;18.034;2024-03-29T12:46:04;7.28;;;2.13;;
18820;SDS011;9539;59.332;18.034;2024-03-29T12:48:26;3.08;;;2.20;;
18820;SDS011;9539;59.332;18.034;2024-03-29T12:50:47;6.68;;;2.35;;
18820;SDS011;9539;59.332;18.034;2024-03-29T12:53:10;5.60;;;2.20;;
18820;SDS011;9539;59.332;18.034;2024-03-29T12:55:31;5.97;;;2.30;;
18820;SDS011;9539;59.332;18.034;2024-03-29T12:57:59;6.00;;;2.38;;
18820;SDS011;9539;59.332;18.034;2024-03-29T13:00:21;7.30;;;2.10;;
18820;SDS011;9539;59.332;18.034;2024-03-29T13:02:42;3.47;;;1.80;;
18820;SDS011;9539;59.332;18.034;2024-03-29T13:05:04;6.00;;;2.63;;
18820;SDS011;9539;59.332;18.034;2024-03-29T13:07:26;7.70;;;2.38;;
18820;SDS011;9539;59.332;18.034;2024-03-29T13:09:48;5.97;;;2.17;;
18820;SDS011;9539;59.332;18.034;2024-03-29T13:12:10;5.65;;;2.42;;
18820;SDS011;9539;59.332;18.034;2024-03-29T13:14:33;4.90;;;2.00;;
18820;SDS011;9539;59.332;18.034;2024-03-29T13:16:55;7.25;;;2.35;;
18820;SDS011;9539;59.332;18.034;2024-03-29T13:19:17;6.70;;;2.05;;
18820;SDS011;9539;59.332;18.034;2024-03-29T13:21:40;8.15;;;2.45;;
18820;SDS011;9539;59.332;18.034;2024-03-29T13:24:02;6.95;;;2.45;;
18820;SDS011;9539;59.332;18.034;2024-03-29T13:26:24;8.38;;;2.53;;
18820;SDS011;9539;59.332;18.034;2024-03-29T13:28:46;5.90;;;2.10;;
18820;SDS011;9539;59.332;18.034;2024-03-29T13:31:09;13.52;;;5.30;;
18820;SDS011;9539;59.332;18.034;2024-03-29T13:33:30;4.90;;;2.00;;
18820;SDS011;9539;59.332;18.034;2024-03-29T13:35:52;6.13;;;2.10;;
18820;SDS011;9539;59.332;18.034;2024-03-29T13:38:14;6.22;;;1.90;;
18820;SDS011;9539;59.332;18.034;2024-03-29T13:40:35;5.30;;;1.70;;
18820;SDS011;9539;59.332;18.034;2024-03-29T13:43:05;2.83;;;1.88;;
18820;SDS011;9539;59.332;18.034;2024-03-29T13:45:34;7.40;;;1.90;;
18820;SDS011;9539;59.332;18.034;2024-03-29T13:48:14;2.88;;;1.60;;
18820;SDS011;9539;59.332;18.034;2024-03-29T13:53:26;11.15;;;1.90;;
18820;SDS011;9539;59.332;18.034;2024-03-29T13:55:57;7.78;;;1.90;;
18820;SDS011;9539;59.332;18.034;2024-03-29T13:58:22;7.68;;;1.88;;
18820;SDS011;9539;59.332;18.034;2024-03-29T14:00:56;6.38;;;1.65;;
18820;SDS011;9539;59.332;18.034;2024-03-29T14:03:40;12.77;;;2.10;;
18820;SDS011;9539;59.332;18.034;2024-03-29T14:06:05;3.88;;;1.70;;
18820;SDS011;9539;59.332;18.034;2024-03-29T14:08:27;5.93;;;1.73;;
18820;SDS011;9539;59.332;18.034;2024-03-29T14:10:49;3.63;;;1.73;;
18820;SDS011;9539;59.332;18.034;2024-03-29T14:13:13;5.22;;;1.70;;
18820;SDS011;9539;59.332;18.034;2024-03-29T14:15:35;6.93;;;1.83;;
18820;SDS011;9539;59.332;18.034;2024-03-29T14:18:00;7.30;;;1.73;;
18820;SDS011;9539;59.332;18.034;2024-03-29T14:23:14;5.25;;;1.50;;
18820;SDS011;9539;59.332;18.034;2024-03-29T14:25:45;4.25;;;1.50;;
18820;SDS011;9539;59.332;18.034;2024-03-29T14:28:19;12.40;;;2.40;;